sensor_id;sensor_type;location;lat;lon;timestamp;P1;durP1;ratioP1;P2;durP2;ratioP2
62202;SDS011;48199;49.138;7.414;2023-12-20T00:00:02;4.57;;;2.43;;
62202;SDS011;48199;49.138;7.414;2023-12-20T00:02:28;3.45;;;2.40;;
62202;SDS011;48199;49.138;7.414;2023-12-20T00:04:53;2.90;;;2.10;;
62202;SDS011;48199;49.138;7.414;2023-12-20T00:07:18;2.75;;;2.08;;
62202;SDS011;48199;49.138;7.414;2023-12-20T00:09:43;4.07;;;2.90;;
62202;SDS011;48199;49.138;7.414;2023-12-20T00:12:09;4.10;;;2.27;;
62202;SDS011;48199;49.138;7.414;2023-12-20T00:14:34;4.72;;;2.67;;
62202;SDS011;48199;49.138;7.414;2023-12-20T00:17:00;3.08;;;2.38;;
62202;SDS011;48199;49.138;7.414;2023-12-20T00:19:25;4.27;;;2.87;;
62202;SDS011;48199;49.138;7.414;2023-12-20T00:21:50;4.47;;;2.88;;
62202;SDS011;48199;49.138;7.414;2023-12-20T00:24:15;4.40;;;2.70;;
62202;SDS011;48199;49.138;7.414;2023-12-20T00:26:41;3.30;;;2.20;;
62202;SDS011;48199;49.138;7.414;2023-12-20T00:29:06;6.77;;;2.93;;
62202;SDS011;48199;49.138;7.414;2023-12-20T00:31:32;3.30;;;2.40;;
62202;SDS011;48199;49.138;7.414;2023-12-20T00:33:57;3.20;;;2.10;;
62202;SDS011;48199;49.138;7.414;2023-12-20T00:36:22;3.55;;;2.05;;
62202;SDS011;48199;49.138;7.414;2023-12-20T00:38:47;2.83;;;2.07;;
62202;SDS011;48199;49.138;7.414;2023-12-20T00:41:13;4.60;;;2.35;;
62202;SDS011;48199;49.138;7.414;2023-12-20T00:43:38;2.83;;;2.10;;
62202;SDS011;48199;49.138;7.414;2023-12-20T00:46:03;2.93;;;1.70;;
62202;SDS011;48199;49.138;7.414;2023-12-20T00:48:28;3.00;;;1.92;;
62202;SDS011;48199;49.138;7.414;2023-12-20T00:50:56;3.05;;;2.05;;
62202;SDS011;48199;49.138;7.414;2023-12-20T00:53:21;3.45;;;1.90;;
62202;SDS011;48199;49.138;7.414;2023-12-20T00:55:46;3.47;;;2.03;;
62202;SDS011;48199;49.138;7.414;2023-12-20T00:58:11;1.93;;;1.60;;
62202;SDS011;48199;49.138;7.414;2023-12-20T01:00:37;2.33;;;1.52;;
62202;SDS011;48199;49.138;7.414;2023-12-20T01:03:02;3.07;;;1.83;;
62202;SDS011;48199;49.138;7.414;2023-12-20T01:05:27;1.88;;;1.58;;
62202;SDS011;48199;49.138;7.414;2023-12-20T01:07:52;4.60;;;1.80;;
62202;SDS011;48199;49.138;7.414;2023-12-20T01:10:18;2.13;;;1.60;;
62202;SDS011;48199;49.138;7.414;2023-12-20T01:12:43;3.47;;;2.05;;
62202;SDS011;48199;49.138;7.414;2023-12-20T01:15:09;4.53;;;1.60;;
62202;SDS011;48199;49.138;7.414;2023-12-20T01:17:34;2.58;;;1.52;;
62202;SDS011;48199;49.138;7.414;2023-12-20T01:19:59;2.60;;;1.92;;
62202;SDS011;48199;49.138;7.414;2023-12-20T01:22:25;3.00;;;1.60;;
62202;SDS011;48199;49.138;7.414;2023-12-20T01:24:50;2.80;;;1.80;;
62202;SDS011;48199;49.138;7.414;2023-12-20T01:27:16;3.10;;;1.90;;
62202;SDS011;48199;49.138;7.414;2023-12-20T01:29:41;2.75;;;1.58;;
62202;SDS011;48199;49.138;7.414;2023-12-20T01:32:06;2.37;;;1.80;;
62202;SDS011;48199;49.138;7.414;2023-12-20T01:34:31;2.60;;;1.80;;
62202;SDS011;48199;49.138;7.414;2023-12-20T01:36:57;2.55;;;1.85;;
62202;SDS011;48199;49.138;7.414;2023-12-20T01:39:22;2.35;;;1.73;;
62202;SDS011;48199;49.138;7.414;2023-12-20T01:41:48;2.70;;;1.70;;
62202;SDS011;48199;49.138;7.414;2023-12-20T01:44:13;7.37;;;1.77;;
62202;SDS011;48199;49.138;7.414;2023-12-20T01:46:38;3.42;;;1.83;;
62202;SDS011;48199;49.138;7.414;2023-12-20T01:49:03;2.65;;;1.75;;
62202;SDS011;48199;49.138;7.414;2023-12-20T01:51:29;2.15;;;1.67;;
62202;SDS011;48199;49.138;7.414;2023-12-20T01:53:55;3.28;;;1.92;;
62202;SDS011;48199;49.138;7.414;2023-12-20T01:56:21;2.92;;;2.10;;
62202;SDS011;48199;49.138;7.414;2023-12-20T01:58:46;4.13;;;1.70;;
62202;SDS011;48199;49.138;7.414;2023-12-20T02:01:12;2.30;;;1.95;;
62202;SDS011;48199;49.138;7.414;2023-12-20T02:03:39;2.45;;;1.77;;
62202;SDS011;48199;49.138;7.414;2023-12-20T02:06:04;2.72;;;2.03;;
62202;SDS011;48199;49.138;7.414;2023-12-20T02:08:30;2.30;;;1.58;;
62202;SDS011;48199;49.138;7.414;2023-12-20T02:10:55;4.17;;;1.57;;
62202;SDS011;48199;49.138;7.414;2023-12-20T02:13:21;3.15;;;1.83;;
62202;SDS011;48199;49.138;7.414;2023-12-20T02:15:46;2.13;;;1.55;;
62202;SDS011;48199;49.138;7.414;2023-12-20T02:18:11;2.85;;;1.85;;
62202;SDS011;48199;49.138;7.414;2023-12-20T02:20:40;2.60;;;1.83;;
62202;SDS011;48199;49.138;7.414;2023-12-20T02:23:05;2.40;;;1.80;;
62202;SDS011;48199;49.138;7.414;2023-12-20T02:25:30;2.28;;;1.70;;
62202;SDS011;48199;49.138;7.414;2023-12-20T02:27:56;2.65;;;1.65;;
62202;SDS011;48199;49.138;7.414;2023-12-20T02:30:21;1.60;;;1.30;;
62202;SDS011;48199;49.138;7.414;2023-12-20T02:32:46;3.28;;;2.05;;
62202;SDS011;48199;49.138;7.414;2023-12-20T02:35:12;2.58;;;1.77;;
62202;SDS011;48199;49.138;7.414;2023-12-20T02:37:37;3.05;;;1.85;;
62202;SDS011;48199;49.138;7.414;2023-12-20T02:40:02;2.95;;;2.10;;
62202;SDS011;48199;49.138;7.414;2023-12-20T02:42:29;2.08;;;1.77;;
62202;SDS011;48199;49.138;7.414;2023-12-20T02:44:54;2.63;;;1.87;;
62202;SDS011;48199;49.138;7.414;2023-12-20T02:47:19;2.60;;;2.03;;
62202;SDS011;48199;49.138;7.414;2023-12-20T02:49:45;3.13;;;2.07;;
62202;SDS011;48199;49.138;7.414;2023-12-20T02:52:10;3.03;;;1.87;;
62202;SDS011;48199;49.138;7.414;2023-12-20T02:54:35;3.78;;;2.10;;
62202;SDS011;48199;49.138;7.414;2023-12-20T02:57:00;3.63;;;1.73;;
62202;SDS011;48199;49.138;7.414;2023-12-20T02:59:25;3.05;;;2.35;;
62202;SDS011;48199;49.138;7.414;2023-12-20T03:01:51;3.40;;;2.43;;
62202;SDS011;48199;49.138;7.414;2023-12-20T03:04:16;2.30;;;2.10;;
62202;SDS011;48199;49.138;7.414;2023-12-20T03:06:41;5.30;;;2.27;;
62202;SDS011;48199;49.138;7.414;2023-12-20T03:09:06;2.60;;;1.90;;
62202;SDS011;48199;49.138;7.414;2023-12-20T03:11:32;3.85;;;2.67;;
62202;SDS011;48199;49.138;7.414;2023-12-20T03:13:57;2.70;;;2.23;;
62202;SDS011;48199;49.138;7.414;2023-12-20T03:16:23;3.72;;;2.63;;
62202;SDS011;48199;49.138;7.414;2023-12-20T03:18:48;7.35;;;2.83;;
62202;SDS011;48199;49.138;7.414;2023-12-20T03:21:13;5.20;;;2.92;;
62202;SDS011;48199;49.138;7.414;2023-12-20T03:23:39;4.20;;;2.90;;
62202;SDS011;48199;49.138;7.414;2023-12-20T03:26:06;4.90;;;3.15;;
62202;SDS011;48199;49.138;7.414;2023-12-20T03:28:32;4.07;;;2.50;;
62202;SDS011;48199;49.138;7.414;2023-12-20T03:30:57;3.93;;;3.00;;
62202;SDS011;48199;49.138;7.414;2023-12-20T03:33:22;4.10;;;3.27;;
62202;SDS011;48199;49.138;7.414;2023-12-20T03:35:47;5.73;;;3.73;;
62202;SDS011;48199;49.138;7.414;2023-12-20T03:38:12;5.13;;;3.70;;
62202;SDS011;48199;49.138;7.414;2023-12-20T03:40:38;4.67;;;3.43;;
62202;SDS011;48199;49.138;7.414;2023-12-20T03:43:03;5.53;;;3.90;;
62202;SDS011;48199;49.138;7.414;2023-12-20T03:45:28;5.53;;;4.22;;
62202;SDS011;48199;49.138;7.414;2023-12-20T03:47:54;6.60;;;4.07;;
62202;SDS011;48199;49.138;7.414;2023-12-20T03:50:22;4.80;;;3.55;;
62202;SDS011;48199;49.138;7.414;2023-12-20T03:52:48;6.20;;;4.53;;
62202;SDS011;48199;49.138;7.414;2023-12-20T03:55:13;5.80;;;4.50;;
62202;SDS011;48199;49.138;7.414;2023-12-20T03:57:38;6.32;;;4.50;;
62202;SDS011;48199;49.138;7.414;2023-12-20T04:00:04;6.70;;;4.67;;
62202;SDS011;48199;49.138;7.414;2023-12-20T04:02:30;7.22;;;5.13;;
62202;SDS011;48199;49.138;7.414;2023-12-20T04:04:55;7.43;;;4.93;;
62202;SDS011;48199;49.138;7.414;2023-12-20T04:07:21;7.33;;;5.30;;
62202;SDS011;48199;49.138;7.414;2023-12-20T04:09:46;6.05;;;4.65;;
62202;SDS011;48199;49.138;7.414;2023-12-20T04:12:13;7.32;;;5.43;;
62202;SDS011;48199;49.138;7.414;2023-12-20T04:14:38;7.03;;;5.27;;
62202;SDS011;48199;49.138;7.414;2023-12-20T04:17:03;9.17;;;5.73;;
62202;SDS011;48199;49.138;7.414;2023-12-20T04:19:28;7.80;;;5.10;;
62202;SDS011;48199;49.138;7.414;2023-12-20T04:21:53;6.33;;;4.87;;
62202;SDS011;48199;49.138;7.414;2023-12-20T04:24:19;7.03;;;4.93;;
62202;SDS011;48199;49.138;7.414;2023-12-20T04:26:44;5.60;;;4.63;;
62202;SDS011;48199;49.138;7.414;2023-12-20T04:29:09;7.17;;;5.47;;
62202;SDS011;48199;49.138;7.414;2023-12-20T04:31:34;6.90;;;5.47;;
62202;SDS011;48199;49.138;7.414;2023-12-20T04:33:59;6.50;;;4.97;;
62202;SDS011;48199;49.138;7.414;2023-12-20T04:36:25;6.80;;;4.80;;
62202;SDS011;48199;49.138;7.414;2023-12-20T04:38:51;7.07;;;5.18;;
62202;SDS011;48199;49.138;7.414;2023-12-20T04:41:17;6.88;;;4.75;;
62202;SDS011;48199;49.138;7.414;2023-12-20T04:43:43;5.82;;;4.53;;
62202;SDS011;48199;49.138;7.414;2023-12-20T04:46:09;7.50;;;4.90;;
62202;SDS011;48199;49.138;7.414;2023-12-20T04:48:34;5.33;;;4.00;;
62202;SDS011;48199;49.138;7.414;2023-12-20T04:50:59;4.43;;;3.63;;
62202;SDS011;48199;49.138;7.414;2023-12-20T04:53:24;4.97;;;3.60;;
62202;SDS011;48199;49.138;7.414;2023-12-20T04:55:49;6.60;;;3.50;;
62202;SDS011;48199;49.138;7.414;2023-12-20T04:58:15;4.03;;;3.20;;
62202;SDS011;48199;49.138;7.414;2023-12-20T05:00:40;4.28;;;3.80;;
62202;SDS011;48199;49.138;7.414;2023-12-20T05:03:05;4.03;;;3.33;;
62202;SDS011;48199;49.138;7.414;2023-12-20T05:05:31;6.47;;;4.03;;
62202;SDS011;48199;49.138;7.414;2023-12-20T05:07:57;3.88;;;2.92;;
62202;SDS011;48199;49.138;7.414;2023-12-20T05:10:22;4.50;;;3.25;;
62202;SDS011;48199;49.138;7.414;2023-12-20T05:12:47;4.93;;;3.43;;
62202;SDS011;48199;49.138;7.414;2023-12-20T05:15:12;4.23;;;3.10;;
62202;SDS011;48199;49.138;7.414;2023-12-20T05:17:37;5.57;;;3.00;;
62202;SDS011;48199;49.138;7.414;2023-12-20T05:20:03;6.03;;;3.67;;
62202;SDS011;48199;49.138;7.414;2023-12-20T05:22:28;6.07;;;3.78;;
62202;SDS011;48199;49.138;7.414;2023-12-20T05:24:53;4.47;;;3.30;;
62202;SDS011;48199;49.138;7.414;2023-12-20T05:27:18;4.50;;;3.47;;
62202;SDS011;48199;49.138;7.414;2023-12-20T05:29:44;4.43;;;3.37;;
62202;SDS011;48199;49.138;7.414;2023-12-20T05:32:09;4.67;;;2.93;;
62202;SDS011;48199;49.138;7.414;2023-12-20T05:34:34;4.43;;;3.20;;
62202;SDS011;48199;49.138;7.414;2023-12-20T05:37:00;5.35;;;3.08;;
62202;SDS011;48199;49.138;7.414;2023-12-20T05:39:26;5.00;;;3.20;;
62202;SDS011;48199;49.138;7.414;2023-12-20T05:41:51;5.20;;;3.40;;
62202;SDS011;48199;49.138;7.414;2023-12-20T05:44:17;4.20;;;3.20;;
62202;SDS011;48199;49.138;7.414;2023-12-20T05:46:42;3.65;;;2.80;;
62202;SDS011;48199;49.138;7.414;2023-12-20T05:49:07;4.78;;;3.28;;
62202;SDS011;48199;49.138;7.414;2023-12-20T05:51:33;4.38;;;2.88;;
62202;SDS011;48199;49.138;7.414;2023-12-20T05:53:58;4.77;;;2.97;;
62202;SDS011;48199;49.138;7.414;2023-12-20T05:56:23;5.35;;;3.10;;
62202;SDS011;48199;49.138;7.414;2023-12-20T05:58:49;4.68;;;3.03;;
62202;SDS011;48199;49.138;7.414;2023-12-20T06:01:14;7.50;;;2.40;;
62202;SDS011;48199;49.138;7.414;2023-12-20T06:03:43;4.80;;;2.42;;
62202;SDS011;48199;49.138;7.414;2023-12-20T06:06:08;3.33;;;2.17;;
62202;SDS011;48199;49.138;7.414;2023-12-20T06:08:34;4.18;;;1.67;;
62202;SDS011;48199;49.138;7.414;2023-12-20T06:10:59;5.75;;;1.70;;
62202;SDS011;48199;49.138;7.414;2023-12-20T06:13:24;2.75;;;1.60;;
62202;SDS011;48199;49.138;7.414;2023-12-20T06:15:50;2.30;;;1.40;;
62202;SDS011;48199;49.138;7.414;2023-12-20T06:18:16;2.70;;;1.50;;
62202;SDS011;48199;49.138;7.414;2023-12-20T06:20:41;4.85;;;1.40;;
62202;SDS011;48199;49.138;7.414;2023-12-20T06:23:06;1.98;;;1.25;;
62202;SDS011;48199;49.138;7.414;2023-12-20T06:25:31;2.40;;;1.50;;
62202;SDS011;48199;49.138;7.414;2023-12-20T06:27:57;3.15;;;1.13;;
62202;SDS011;48199;49.138;7.414;2023-12-20T06:30:22;5.23;;;1.80;;
62202;SDS011;48199;49.138;7.414;2023-12-20T06:32:47;5.20;;;1.40;;
62202;SDS011;48199;49.138;7.414;2023-12-20T06:35:13;5.87;;;1.47;;
62202;SDS011;48199;49.138;7.414;2023-12-20T06:37:38;5.27;;;1.47;;
62202;SDS011;48199;49.138;7.414;2023-12-20T06:40:07;1.95;;;1.42;;
62202;SDS011;48199;49.138;7.414;2023-12-20T06:42:32;4.30;;;1.60;;
62202;SDS011;48199;49.138;7.414;2023-12-20T06:44:58;8.20;;;1.47;;
62202;SDS011;48199;49.138;7.414;2023-12-20T06:47:23;6.37;;;1.43;;
62202;SDS011;48199;49.138;7.414;2023-12-20T06:49:48;4.53;;;1.40;;
62202;SDS011;48199;49.138;7.414;2023-12-20T06:52:13;2.83;;;1.10;;
62202;SDS011;48199;49.138;7.414;2023-12-20T06:54:38;2.85;;;1.20;;
62202;SDS011;48199;49.138;7.414;2023-12-20T06:57:04;2.33;;;1.20;;
62202;SDS011;48199;49.138;7.414;2023-12-20T06:59:29;3.95;;;1.23;;
62202;SDS011;48199;49.138;7.414;2023-12-20T07:01:54;2.22;;;1.05;;
62202;SDS011;48199;49.138;7.414;2023-12-20T07:04:20;4.60;;;1.10;;
62202;SDS011;48199;49.138;7.414;2023-12-20T07:06:46;4.15;;;1.40;;
62202;SDS011;48199;49.138;7.414;2023-12-20T07:09:13;2.97;;;1.05;;
62202;SDS011;48199;49.138;7.414;2023-12-20T07:11:38;2.53;;;1.42;;
62202;SDS011;48199;49.138;7.414;2023-12-20T07:14:03;3.85;;;1.45;;
62202;SDS011;48199;49.138;7.414;2023-12-20T07:16:28;4.47;;;1.07;;
62202;SDS011;48199;49.138;7.414;2023-12-20T07:18:54;6.95;;;1.35;;
62202;SDS011;48199;49.138;7.414;2023-12-20T07:21:19;6.03;;;1.43;;
62202;SDS011;48199;49.138;7.414;2023-12-20T07:23:44;2.80;;;1.23;;
62202;SDS011;48199;49.138;7.414;2023-12-20T07:26:10;7.67;;;1.70;;
62202;SDS011;48199;49.138;7.414;2023-12-20T07:28:36;3.20;;;1.27;;
62202;SDS011;48199;49.138;7.414;2023-12-20T07:31:01;2.20;;;1.20;;
62202;SDS011;48199;49.138;7.414;2023-12-20T07:33:26;4.82;;;1.50;;
62202;SDS011;48199;49.138;7.414;2023-12-20T07:35:52;5.67;;;1.63;;
62202;SDS011;48199;49.138;7.414;2023-12-20T07:38:17;5.63;;;1.70;;
62202;SDS011;48199;49.138;7.414;2023-12-20T07:40:42;3.43;;;1.83;;
62202;SDS011;48199;49.138;7.414;2023-12-20T07:43:07;9.80;;;1.98;;
62202;SDS011;48199;49.138;7.414;2023-12-20T07:45:33;5.17;;;1.50;;
62202;SDS011;48199;49.138;7.414;2023-12-20T07:47:58;3.35;;;1.58;;
62202;SDS011;48199;49.138;7.414;2023-12-20T07:50:23;5.97;;;1.97;;
62202;SDS011;48199;49.138;7.414;2023-12-20T07:52:48;3.10;;;1.57;;
62202;SDS011;48199;49.138;7.414;2023-12-20T07:55:13;2.27;;;1.63;;
62202;SDS011;48199;49.138;7.414;2023-12-20T07:57:39;5.37;;;1.67;;
62202;SDS011;48199;49.138;7.414;2023-12-20T08:00:04;2.53;;;1.48;;
62202;SDS011;48199;49.138;7.414;2023-12-20T08:02:30;3.22;;;1.50;;
62202;SDS011;48199;49.138;7.414;2023-12-20T08:04:55;9.67;;;1.90;;
62202;SDS011;48199;49.138;7.414;2023-12-20T08:07:20;5.73;;;2.10;;
62202;SDS011;48199;49.138;7.414;2023-12-20T08:09:46;3.53;;;2.00;;
62202;SDS011;48199;49.138;7.414;2023-12-20T08:12:11;6.93;;;1.98;;
62202;SDS011;48199;49.138;7.414;2023-12-20T08:14:36;6.85;;;2.03;;
62202;SDS011;48199;49.138;7.414;2023-12-20T08:17:02;4.78;;;2.25;;
62202;SDS011;48199;49.138;7.414;2023-12-20T08:19:27;4.90;;;2.17;;
62202;SDS011;48199;49.138;7.414;2023-12-20T08:21:52;5.57;;;1.87;;
62202;SDS011;48199;49.138;7.414;2023-12-20T08:24:18;6.33;;;2.27;;
62202;SDS011;48199;49.138;7.414;2023-12-20T08:26:43;7.83;;;2.00;;
62202;SDS011;48199;49.138;7.414;2023-12-20T08:29:08;5.78;;;2.03;;
62202;SDS011;48199;49.138;7.414;2023-12-20T08:31:33;7.63;;;2.60;;
62202;SDS011;48199;49.138;7.414;2023-12-20T08:33:59;5.80;;;2.25;;
62202;SDS011;48199;49.138;7.414;2023-12-20T08:36:24;3.65;;;2.28;;
62202;SDS011;48199;49.138;7.414;2023-12-20T08:38:49;6.22;;;2.30;;
62202;SDS011;48199;49.138;7.414;2023-12-20T08:41:16;8.13;;;2.92;;
62202;SDS011;48199;49.138;7.414;2023-12-20T08:43:41;5.88;;;2.65;;
62202;SDS011;48199;49.138;7.414;2023-12-20T08:46:06;6.83;;;2.60;;
62202;SDS011;48199;49.138;7.414;2023-12-20T08:48:31;6.20;;;2.40;;
62202;SDS011;48199;49.138;7.414;2023-12-20T08:50:56;5.87;;;2.50;;
62202;SDS011;48199;49.138;7.414;2023-12-20T08:53:22;8.10;;;2.65;;
62202;SDS011;48199;49.138;7.414;2023-12-20T08:55:47;4.38;;;2.33;;
62202;SDS011;48199;49.138;7.414;2023-12-20T08:58:13;6.97;;;2.70;;
62202;SDS011;48199;49.138;7.414;2023-12-20T09:00:38;6.25;;;2.80;;
62202;SDS011;48199;49.138;7.414;2023-12-20T09:03:03;7.75;;;2.97;;
62202;SDS011;48199;49.138;7.414;2023-12-20T09:05:29;12.00;;;2.75;;
62202;SDS011;48199;49.138;7.414;2023-12-20T09:07:55;11.10;;;3.22;;
62202;SDS011;48199;49.138;7.414;2023-12-20T09:10:20;10.68;;;2.95;;
62202;SDS011;48199;49.138;7.414;2023-12-20T09:12:50;9.27;;;3.75;;
62202;SDS011;48199;49.138;7.414;2023-12-20T09:15:15;6.18;;;2.72;;
62202;SDS011;48199;49.138;7.414;2023-12-20T09:17:41;7.40;;;3.17;;
62202;SDS011;48199;49.138;7.414;2023-12-20T09:20:06;9.73;;;2.85;;
62202;SDS011;48199;49.138;7.414;2023-12-20T09:22:33;7.68;;;2.42;;
62202;SDS011;48199;49.138;7.414;2023-12-20T09:24:58;7.38;;;2.85;;
62202;SDS011;48199;49.138;7.414;2023-12-20T09:27:23;10.90;;;2.78;;
62202;SDS011;48199;49.138;7.414;2023-12-20T09:29:49;5.97;;;2.47;;
62202;SDS011;48199;49.138;7.414;2023-12-20T09:32:14;6.80;;;3.15;;
62202;SDS011;48199;49.138;7.414;2023-12-20T09:34:39;4.73;;;2.50;;
62202;SDS011;48199;49.138;7.414;2023-12-20T09:37:06;5.82;;;2.63;;
62202;SDS011;48199;49.138;7.414;2023-12-20T09:39:32;6.57;;;3.17;;
62202;SDS011;48199;49.138;7.414;2023-12-20T09:42:02;12.80;;;3.67;;
62202;SDS011;48199;49.138;7.414;2023-12-20T09:44:28;5.75;;;2.50;;
62202;SDS011;48199;49.138;7.414;2023-12-20T09:46:54;5.97;;;2.38;;
62202;SDS011;48199;49.138;7.414;2023-12-20T09:49:20;8.73;;;3.10;;
62202;SDS011;48199;49.138;7.414;2023-12-20T09:51:46;5.57;;;2.72;;
62202;SDS011;48199;49.138;7.414;2023-12-20T09:54:11;7.03;;;2.92;;
62202;SDS011;48199;49.138;7.414;2023-12-20T09:56:37;8.80;;;2.55;;
62202;SDS011;48199;49.138;7.414;2023-12-20T09:59:03;14.15;;;3.53;;
62202;SDS011;48199;49.138;7.414;2023-12-20T10:01:28;12.13;;;2.97;;
62202;SDS011;48199;49.138;7.414;2023-12-20T10:03:54;7.68;;;2.95;;
62202;SDS011;48199;49.138;7.414;2023-12-20T10:06:19;7.38;;;2.95;;
62202;SDS011;48199;49.138;7.414;2023-12-20T10:08:44;7.13;;;2.90;;
62202;SDS011;48199;49.138;7.414;2023-12-20T10:11:10;8.90;;;3.13;;
62202;SDS011;48199;49.138;7.414;2023-12-20T10:13:38;14.52;;;3.30;;
62202;SDS011;48199;49.138;7.414;2023-12-20T10:16:04;5.30;;;2.60;;
62202;SDS011;48199;49.138;7.414;2023-12-20T10:18:31;12.80;;;3.15;;
62202;SDS011;48199;49.138;7.414;2023-12-20T10:20:56;14.35;;;3.35;;
62202;SDS011;48199;49.138;7.414;2023-12-20T10:23:21;7.17;;;2.53;;
62202;SDS011;48199;49.138;7.414;2023-12-20T10:25:57;12.95;;;3.00;;
62202;SDS011;48199;49.138;7.414;2023-12-20T10:28:23;6.75;;;2.67;;
62202;SDS011;48199;49.138;7.414;2023-12-20T10:30:52;7.75;;;2.97;;
62202;SDS011;48199;49.138;7.414;2023-12-20T10:33:24;9.57;;;2.97;;
62202;SDS011;48199;49.138;7.414;2023-12-20T10:38:14;5.05;;;2.35;;
62202;SDS011;48199;49.138;7.414;2023-12-20T10:40:40;5.10;;;2.50;;
62202;SDS011;48199;49.138;7.414;2023-12-20T10:43:05;6.65;;;2.60;;
62202;SDS011;48199;49.138;7.414;2023-12-20T10:45:30;8.90;;;2.65;;
62202;SDS011;48199;49.138;7.414;2023-12-20T10:47:56;9.30;;;2.55;;
62202;SDS011;48199;49.138;7.414;2023-12-20T10:50:24;5.78;;;2.45;;
62202;SDS011;48199;49.138;7.414;2023-12-20T10:52:49;7.88;;;2.50;;
62202;SDS011;48199;49.138;7.414;2023-12-20T10:55:20;10.55;;;2.42;;
62202;SDS011;48199;49.138;7.414;2023-12-20T10:57:45;11.57;;;2.40;;
62202;SDS011;48199;49.138;7.414;2023-12-20T11:00:15;10.93;;;2.65;;
62202;SDS011;48199;49.138;7.414;2023-12-20T11:02:42;13.30;;;3.00;;
62202;SDS011;48199;49.138;7.414;2023-12-20T11:07:48;9.05;;;2.60;;
62202;SDS011;48199;49.138;7.414;2023-12-20T11:10:17;9.75;;;3.17;;
62202;SDS011;48199;49.138;7.414;2023-12-20T11:12:46;10.77;;;2.70;;
62202;SDS011;48199;49.138;7.414;2023-12-20T11:15:12;13.68;;;2.83;;
62202;SDS011;48199;49.138;7.414;2023-12-20T11:17:38;10.10;;;2.20;;
62202;SDS011;48199;49.138;7.414;2023-12-20T11:20:04;4.45;;;2.00;;
62202;SDS011;48199;49.138;7.414;2023-12-20T11:22:31;8.18;;;2.40;;
62202;SDS011;48199;49.138;7.414;2023-12-20T11:25:09;7.57;;;2.30;;
62202;SDS011;48199;49.138;7.414;2023-12-20T11:27:35;9.32;;;2.75;;
62202;SDS011;48199;49.138;7.414;2023-12-20T11:30:03;11.35;;;2.38;;
62202;SDS011;48199;49.138;7.414;2023-12-20T11:32:31;5.78;;;2.50;;
62202;SDS011;48199;49.138;7.414;2023-12-20T11:34:58;5.75;;;2.40;;
62202;SDS011;48199;49.138;7.414;2023-12-20T11:37:30;7.03;;;2.00;;
62202;SDS011;48199;49.138;7.414;2023-12-20T11:40:09;6.57;;;2.50;;
62202;SDS011;48199;49.138;7.414;2023-12-20T11:42:43;6.50;;;2.65;;
62202;SDS011;48199;49.138;7.414;2023-12-20T11:47:33;7.80;;;2.45;;
62202;SDS011;48199;49.138;7.414;2023-12-20T11:49:59;5.45;;;2.50;;
62202;SDS011;48199;49.138;7.414;2023-12-20T11:52:28;5.25;;;2.65;;
62202;SDS011;48199;49.138;7.414;2023-12-20T11:54:53;8.50;;;2.58;;
62202;SDS011;48199;49.138;7.414;2023-12-20T11:57:18;9.40;;;2.50;;
62202;SDS011;48199;49.138;7.414;2023-12-20T11:59:44;5.77;;;2.73;;
62202;SDS011;48199;49.138;7.414;2023-12-20T12:02:11;10.48;;;2.67;;
62202;SDS011;48199;49.138;7.414;2023-12-20T12:04:36;10.02;;;2.75;;
62202;SDS011;48199;49.138;7.414;2023-12-20T12:07:01;15.77;;;3.23;;
62202;SDS011;48199;49.138;7.414;2023-12-20T12:09:27;7.75;;;2.80;;
62202;SDS011;48199;49.138;7.414;2023-12-20T12:11:52;10.80;;;2.50;;
62202;SDS011;48199;49.138;7.414;2023-12-20T12:14:17;14.32;;;2.58;;
62202;SDS011;48199;49.138;7.414;2023-12-20T12:16:44;7.55;;;2.38;;
62202;SDS011;48199;49.138;7.414;2023-12-20T12:19:19;15.25;;;3.45;;
62202;SDS011;48199;49.138;7.414;2023-12-20T12:21:45;8.65;;;2.00;;
62202;SDS011;48199;49.138;7.414;2023-12-20T12:24:10;11.03;;;2.27;;
62202;SDS011;48199;49.138;7.414;2023-12-20T12:26:35;10.05;;;2.60;;
62202;SDS011;48199;49.138;7.414;2023-12-20T12:29:00;6.95;;;1.83;;
62202;SDS011;48199;49.138;7.414;2023-12-20T12:31:26;7.95;;;2.45;;
62202;SDS011;48199;49.138;7.414;2023-12-20T12:33:51;9.00;;;1.95;;
62202;SDS011;48199;49.138;7.414;2023-12-20T12:36:17;11.07;;;1.98;;
62202;SDS011;48199;49.138;7.414;2023-12-20T12:38:42;7.85;;;2.35;;
62202;SDS011;48199;49.138;7.414;2023-12-20T12:41:08;11.57;;;2.00;;
62202;SDS011;48199;49.138;7.414;2023-12-20T12:43:35;5.78;;;1.83;;
62202;SDS011;48199;49.138;7.414;2023-12-20T12:46:00;8.13;;;2.10;;
62202;SDS011;48199;49.138;7.414;2023-12-20T12:48:25;8.38;;;2.00;;
62202;SDS011;48199;49.138;7.414;2023-12-20T12:50:52;6.22;;;1.63;;
62202;SDS011;48199;49.138;7.414;2023-12-20T12:53:19;12.48;;;2.25;;
62202;SDS011;48199;49.138;7.414;2023-12-20T12:55:44;11.77;;;2.33;;
62202;SDS011;48199;49.138;7.414;2023-12-20T12:58:09;6.10;;;1.80;;
62202;SDS011;48199;49.138;7.414;2023-12-20T13:00:35;12.45;;;2.20;;
62202;SDS011;48199;49.138;7.414;2023-12-20T13:03:00;4.30;;;1.57;;
62202;SDS011;48199;49.138;7.414;2023-12-20T13:05:25;4.80;;;1.33;;
62202;SDS011;48199;49.138;7.414;2023-12-20T13:07:51;7.57;;;2.00;;
62202;SDS011;48199;49.138;7.414;2023-12-20T13:10:16;11.03;;;2.60;;
62202;SDS011;48199;49.138;7.414;2023-12-20T13:12:42;8.38;;;1.60;;
62202;SDS011;48199;49.138;7.414;2023-12-20T13:15:07;8.32;;;1.63;;
62202;SDS011;48199;49.138;7.414;2023-12-20T13:17:32;5.65;;;2.00;;
62202;SDS011;48199;49.138;7.414;2023-12-20T13:19:57;9.63;;;1.83;;
62202;SDS011;48199;49.138;7.414;2023-12-20T13:22:23;15.73;;;2.55;;
62202;SDS011;48199;49.138;7.414;2023-12-20T13:24:48;15.10;;;2.25;;
62202;SDS011;48199;49.138;7.414;2023-12-20T13:27:14;16.52;;;2.47;;
62202;SDS011;48199;49.138;7.414;2023-12-20T13:29:39;6.40;;;2.13;;
62202;SDS011;48199;49.138;7.414;2023-12-20T13:32:04;7.53;;;2.17;;
62202;SDS011;48199;49.138;7.414;2023-12-20T13:34:30;10.68;;;2.13;;
62202;SDS011;48199;49.138;7.414;2023-12-20T13:36:55;5.67;;;1.70;;
62202;SDS011;48199;49.138;7.414;2023-12-20T13:39:21;15.13;;;2.38;;
62202;SDS011;48199;49.138;7.414;2023-12-20T13:41:46;10.50;;;2.42;;
62202;SDS011;48199;49.138;7.414;2023-12-20T13:44:12;7.57;;;2.38;;
62202;SDS011;48199;49.138;7.414;2023-12-20T13:46:37;9.57;;;2.00;;
62202;SDS011;48199;49.138;7.414;2023-12-20T13:49:03;8.73;;;1.90;;
62202;SDS011;48199;49.138;7.414;2023-12-20T13:51:28;8.95;;;2.13;;
62202;SDS011;48199;49.138;7.414;2023-12-20T13:53:53;6.75;;;1.80;;
62202;SDS011;48199;49.138;7.414;2023-12-20T13:56:18;9.63;;;2.10;;
62202;SDS011;48199;49.138;7.414;2023-12-20T13:58:45;6.15;;;1.92;;
62202;SDS011;48199;49.138;7.414;2023-12-20T14:01:11;11.60;;;1.92;;
62202;SDS011;48199;49.138;7.414;2023-12-20T14:03:36;8.98;;;1.73;;
62202;SDS011;48199;49.138;7.414;2023-12-20T14:06:02;6.50;;;1.60;;
62202;SDS011;48199;49.138;7.414;2023-12-20T14:08:27;8.20;;;2.10;;
62202;SDS011;48199;49.138;7.414;2023-12-20T14:10:52;10.20;;;1.73;;
62202;SDS011;48199;49.138;7.414;2023-12-20T14:13:18;5.68;;;1.90;;
62202;SDS011;48199;49.138;7.414;2023-12-20T14:15:43;5.03;;;1.58;;
62202;SDS011;48199;49.138;7.414;2023-12-20T14:18:09;9.45;;;1.77;;
62202;SDS011;48199;49.138;7.414;2023-12-20T14:20:35;7.72;;;1.70;;
62202;SDS011;48199;49.138;7.414;2023-12-20T14:23:01;5.45;;;1.60;;
62202;SDS011;48199;49.138;7.414;2023-12-20T14:25:26;7.68;;;1.80;;
62202;SDS011;48199;49.138;7.414;2023-12-20T14:27:51;3.43;;;1.40;;
62202;SDS011;48199;49.138;7.414;2023-12-20T14:30:16;10.20;;;1.80;;
62202;SDS011;48199;49.138;7.414;2023-12-20T14:32:42;14.02;;;2.15;;
62202;SDS011;48199;49.138;7.414;2023-12-20T14:35:07;7.18;;;1.65;;
62202;SDS011;48199;49.138;7.414;2023-12-20T14:37:33;7.53;;;1.40;;
62202;SDS011;48199;49.138;7.414;2023-12-20T14:39:59;6.93;;;1.75;;
62202;SDS011;48199;49.138;7.414;2023-12-20T14:42:24;7.60;;;1.63;;